香港 の空港の天気 - METARとTAF

香港国際空港 ( VHHH / HKG ) - 香港 赤リョウ角
飛行場実況気象(Metar)
観測時間10/31 05:30 HKT (10/30 21:30 UTC)
風向・風速東 4m/s
視程10km以上
天気現象
少しの雲 雲底高度 610m
全天の4割程度の雲 雲底高度 1070m
気温23℃
湿度73%
気圧1017hPa
METARVHHH 302130Z 08007KT 9999 FEW020 SCT035 23/18 Q1017 NOSIG
過去の天気等 Google飛行場航空写真 Wunderground天気予報

過去48時間のMETAR

飛行場予報(TAF)
発表時間: 10/31 01:00 HKT (10/30 17:00 UTC)
予報対象時間: 31日2時 HKT ~ 1日8時 HKT
風向・風速東 5m/s
視程9000m
少しの雲 雲底高度 610m
全天の4割程度の雲 雲底高度 1070m
31日12時 HKT ~ 31日17時 HKT に一時的に
風向・風速西 5m/s
TAF VHHH 301700Z 3018/3124 09010KT 9000 FEW020 SCT035 TX27/3106Z TN23/3023Z TN22/3123Z
TEMPO 3104/3109 28010KT